createdAt,value
2023-02-11T00:01:26.886Z,29.13
2023-02-11T00:03:54.852Z,32.83
2023-02-11T00:06:24.444Z,29.37
2023-02-11T00:08:52.256Z,34.63
2023-02-11T00:11:20.814Z,38.00
2023-02-11T00:13:48.978Z,33.90
2023-02-11T00:16:17.535Z,31.57
2023-02-11T00:18:45.569Z,31.03
2023-02-11T00:21:14.150Z,30.93
2023-02-11T00:23:43.885Z,32.13
2023-02-11T00:26:15.068Z,28.33
2023-02-11T00:28:42.803Z,32.37
2023-02-11T00:31:10.785Z,27.47
2023-02-11T00:33:38.510Z,33.40
2023-02-11T00:36:06.525Z,30.80
2023-02-11T00:38:34.320Z,25.63
2023-02-11T00:41:03.381Z,29.47
2023-02-11T00:43:31.002Z,26.63
2023-02-11T00:45:58.802Z,22.53
2023-02-11T00:48:26.545Z,30.47
2023-02-11T00:50:54.358Z,30.63
2023-02-11T00:53:22.087Z,27.40
2023-02-11T00:55:49.979Z,26.27
2023-02-11T00:58:19.288Z,23.83
2023-02-11T01:00:46.970Z,29.03
2023-02-11T01:03:14.600Z,25.00
2023-02-11T01:05:42.615Z,34.37
2023-02-11T01:08:10.281Z,35.50
2023-02-11T01:10:37.997Z,35.57
2023-02-11T01:13:06.625Z,26.10
2023-02-11T01:15:35.827Z,24.67
2023-02-11T01:18:03.489Z,24.43
2023-02-11T01:20:31.202Z,27.10
2023-02-11T01:22:58.887Z,29.00
2023-02-11T01:25:26.564Z,26.60
2023-02-11T01:27:54.284Z,25.10
2023-02-11T01:30:22.155Z,24.60
2023-02-11T01:32:51.201Z,31.43
2023-02-11T01:35:18.976Z,26.13
2023-02-11T01:37:46.625Z,29.30
2023-02-11T01:40:15.918Z,29.57
2023-02-11T01:42:43.864Z,26.33
2023-02-11T01:45:29.857Z,33.20
2023-02-11T01:47:58.947Z,28.87
2023-02-11T01:50:27.324Z,26.93
2023-02-11T01:53:15.609Z,28.43
2023-02-11T01:56:00.805Z,30.57
2023-02-11T01:58:29.018Z,30.07
2023-02-11T02:00:56.945Z,28.90
2023-02-11T02:03:26.063Z,25.87
2023-02-11T02:05:55.797Z,29.60
2023-02-11T02:08:26.174Z,29.03
2023-02-11T02:10:56.626Z,28.13
2023-02-11T02:13:24.723Z,22.10
2023-02-11T02:15:53.692Z,29.93
2023-02-11T02:18:27.893Z,24.13
2023-02-11T02:21:14.397Z,21.93
2023-02-11T02:23:53.077Z,23.47
2023-02-11T02:26:29.333Z,27.70
2023-02-11T02:29:08.019Z,24.20
2023-02-11T02:31:42.896Z,28.87
2023-02-11T02:34:14.715Z,27.67
2023-02-11T02:36:45.088Z,25.90
2023-02-11T02:39:14.420Z,25.43
2023-02-11T02:41:42.775Z,29.17
2023-02-11T02:44:10.487Z,24.60
2023-02-11T02:46:38.376Z,32.00
2023-02-11T02:49:07.818Z,27.27
2023-02-11T02:52:00.152Z,25.83
2023-02-11T02:54:37.004Z,24.53
2023-02-11T02:57:08.320Z,23.83
2023-02-11T02:59:42.423Z,24.47
2023-02-11T03:02:14.398Z,23.00
2023-02-11T03:04:47.234Z,25.90
2023-02-11T03:07:19.166Z,21.43
2023-02-11T03:09:52.648Z,24.03
2023-02-11T03:12:21.104Z,25.90
2023-02-11T03:14:50.289Z,20.83
2023-02-11T03:17:18.004Z,23.87
2023-02-11T03:19:47.002Z,23.07
2023-02-11T03:22:18.445Z,21.50
2023-02-11T03:24:46.218Z,25.53
2023-02-11T03:27:19.149Z,21.57
2023-02-11T03:29:51.757Z,25.50
2023-02-11T03:32:22.385Z,20.57
2023-02-11T03:34:51.224Z,21.73
2023-02-11T03:37:21.062Z,25.23
2023-02-11T03:39:52.469Z,23.10
2023-02-11T03:42:23.113Z,21.43
2023-02-11T03:44:52.973Z,21.20
2023-02-11T03:47:22.447Z,22.93
2023-02-11T03:49:51.243Z,25.43
2023-02-11T03:52:21.061Z,20.23
2023-02-11T03:54:50.457Z,22.13
2023-02-11T03:57:18.124Z,17.53
2023-02-11T03:59:57.220Z,15.77
2023-02-11T04:02:26.424Z,16.10
2023-02-11T04:04:54.094Z,19.47
2023-02-11T04:07:22.066Z,21.23
2023-02-11T04:09:49.941Z,17.90
2023-02-11T04:12:17.568Z,23.63
2023-02-11T04:14:45.285Z,20.07
2023-02-11T04:17:14.504Z,18.63
2023-02-11T04:19:42.159Z,18.93
2023-02-11T04:22:09.907Z,24.27
2023-02-11T04:24:37.697Z,20.17
2023-02-11T04:27:05.372Z,22.10
2023-02-11T04:29:33.498Z,20.23
2023-02-11T04:32:01.211Z,22.97
2023-02-11T04:34:30.237Z,22.27
2023-02-11T04:36:57.996Z,22.13
2023-02-11T04:39:25.624Z,19.57
2023-02-11T04:41:53.256Z,21.30
2023-02-11T04:44:20.987Z,21.17
2023-02-11T04:46:48.665Z,20.17
2023-02-11T04:49:17.172Z,20.53
2023-02-11T04:51:49.211Z,21.50
2023-02-11T04:54:17.494Z,22.70
2023-02-11T04:56:45.329Z,16.80
2023-02-11T04:59:13.551Z,23.03
2023-02-11T05:01:41.282Z,20.53
2023-02-11T05:04:09.115Z,21.43
2023-02-11T05:06:36.829Z,21.40
2023-02-11T05:09:05.908Z,17.93
2023-02-11T05:11:39.982Z,15.17
2023-02-11T05:14:08.115Z,18.10
2023-02-11T05:16:35.881Z,14.83
2023-02-11T05:19:03.658Z,18.57
2023-02-11T05:21:31.284Z,18.43
2023-02-11T05:23:58.987Z,19.57
2023-02-11T05:26:28.098Z,18.37
2023-02-11T05:28:55.778Z,16.50
2023-02-11T05:31:23.421Z,22.87
2023-02-11T05:33:51.214Z,21.27
2023-02-11T05:36:18.891Z,18.23
2023-02-11T05:38:46.515Z,19.60
2023-02-11T05:41:14.228Z,20.67
2023-02-11T05:43:43.281Z,19.97
2023-02-11T05:46:10.969Z,18.20
2023-02-11T05:48:38.739Z,22.30
2023-02-11T05:51:06.942Z,22.93
2023-02-11T05:53:34.641Z,20.77
2023-02-11T05:56:02.358Z,26.20
2023-02-11T05:58:30.053Z,26.37
2023-02-11T06:00:59.117Z,23.23
2023-02-11T06:03:26.902Z,18.80
2023-02-11T06:05:54.665Z,22.67
2023-02-11T06:08:22.475Z,24.20
2023-02-11T06:10:50.150Z,24.30
2023-02-11T06:13:18.725Z,21.67
2023-02-11T06:15:46.456Z,22.17
2023-02-11T06:18:15.577Z,26.73
2023-02-11T06:20:43.260Z,24.77
2023-02-11T06:23:10.948Z,23.30
2023-02-11T06:25:38.749Z,28.77
2023-02-11T06:28:06.442Z,23.53
2023-02-11T06:30:34.146Z,21.90
2023-02-11T06:33:01.934Z,22.80
2023-02-11T06:35:31.301Z,22.53
2023-02-11T06:37:58.952Z,22.37
2023-02-11T06:40:26.668Z,25.43
2023-02-11T06:42:54.360Z,19.47
2023-02-11T06:45:22.052Z,27.67
2023-02-11T06:47:52.367Z,23.90
2023-02-11T06:50:20.533Z,24.67
2023-02-11T06:52:49.613Z,22.60
2023-02-11T06:55:17.401Z,29.23
2023-02-11T06:57:45.041Z,24.93
2023-02-11T07:00:13.458Z,29.77
2023-02-11T07:02:41.145Z,26.43
2023-02-11T07:05:09.431Z,29.60
2023-02-11T07:07:37.095Z,23.67
2023-02-11T07:10:06.705Z,26.77
2023-02-11T07:12:34.363Z,29.47
2023-02-11T07:15:02.040Z,25.53
2023-02-11T07:17:29.824Z,29.57
2023-02-11T07:19:57.519Z,28.03
2023-02-11T07:22:25.203Z,32.50
2023-02-11T07:24:52.956Z,31.13
2023-02-11T07:27:21.985Z,31.00
2023-02-11T07:29:49.653Z,32.47
2023-02-11T07:32:17.532Z,35.93
2023-02-11T07:34:45.602Z,34.23
2023-02-11T07:37:13.330Z,39.47
2023-02-11T07:39:41.031Z,32.10
2023-02-11T07:42:08.679Z,32.90
2023-02-11T07:44:38.074Z,37.27
2023-02-11T07:47:06.046Z,38.07
2023-02-11T07:49:34.186Z,31.90
2023-02-11T07:52:02.066Z,37.43
2023-02-11T07:54:29.743Z,28.63
2023-02-11T07:56:57.371Z,29.80
2023-02-11T07:59:25.620Z,25.30
2023-02-11T08:01:54.738Z,26.40
2023-02-11T08:04:22.436Z,22.90
2023-02-11T08:06:52.855Z,22.87
2023-02-11T08:09:20.587Z,23.47
2023-02-11T08:11:48.221Z,27.47
2023-02-11T08:14:16.177Z,21.87
2023-02-11T08:16:44.020Z,30.53
2023-02-11T08:19:13.742Z,26.27
2023-02-11T08:21:41.647Z,26.23
2023-02-11T08:24:09.444Z,26.93
2023-02-11T08:26:37.160Z,25.53
2023-02-11T08:29:08.644Z,25.17
2023-02-11T08:31:37.717Z,26.23
2023-02-11T08:34:05.531Z,33.87
2023-02-11T08:36:35.594Z,26.00
2023-02-11T08:39:17.950Z,26.33
2023-02-11T08:41:46.944Z,27.27
2023-02-11T08:44:14.728Z,26.13
2023-02-11T08:46:42.384Z,28.27
2023-02-11T08:49:10.042Z,31.00
2023-02-11T08:51:39.158Z,27.10
2023-02-11T08:54:09.595Z,30.07
2023-02-11T08:56:37.520Z,22.00
2023-02-11T08:59:05.388Z,22.00
2023-02-11T09:01:33.451Z,29.43
2023-02-11T09:04:01.937Z,27.53
2023-02-11T09:06:29.710Z,25.13
2023-02-11T09:08:59.256Z,27.97
2023-02-11T09:11:27.844Z,28.07
2023-02-11T09:13:55.638Z,22.80
2023-02-11T09:16:24.494Z,28.63
2023-02-11T09:18:52.436Z,26.13
2023-02-11T09:21:20.657Z,31.17
2023-02-11T09:23:48.820Z,27.17
2023-02-11T09:26:19.035Z,28.43
2023-02-11T09:28:47.148Z,23.60
2023-02-11T09:31:15.887Z,22.20
2023-02-11T09:33:48.130Z,23.80
2023-02-11T09:36:16.520Z,23.57
2023-02-11T09:38:44.774Z,26.87
2023-02-11T09:41:27.310Z,23.80
2023-02-11T09:43:55.851Z,21.27
2023-02-11T09:46:24.356Z,21.13
2023-02-11T09:48:53.450Z,25.00
2023-02-11T09:51:21.926Z,25.37
2023-02-11T09:53:50.744Z,21.63
2023-02-11T09:56:18.487Z,23.63
2023-02-11T09:58:47.620Z,24.30
2023-02-11T10:01:21.732Z,19.77
2023-02-11T10:03:56.284Z,27.27
2023-02-11T10:06:35.674Z,19.83
2023-02-11T10:09:07.275Z,20.50
2023-02-11T10:11:37.815Z,16.90
2023-02-11T10:14:12.200Z,18.33
2023-02-11T10:16:46.590Z,19.73
2023-02-11T10:19:25.458Z,15.03
2023-02-11T10:21:56.995Z,19.03
2023-02-11T10:24:24.699Z,21.23
2023-02-11T10:26:52.982Z,23.43
2023-02-11T10:29:27.546Z,20.17
2023-02-11T10:31:58.120Z,20.87
2023-02-11T10:34:26.047Z,19.33
2023-02-11T10:36:53.778Z,18.00
2023-02-11T10:39:22.525Z,17.23
2023-02-11T10:41:52.348Z,18.53
2023-02-11T10:44:26.858Z,15.50
2023-02-11T10:46:54.848Z,19.13
2023-02-11T10:49:35.362Z,17.80
2023-02-11T10:52:23.873Z,19.27
2023-02-11T10:54:58.869Z,22.00
2023-02-11T10:57:28.910Z,17.73
2023-02-11T11:00:00.442Z,17.43
2023-02-11T11:02:32.217Z,14.13
2023-02-11T11:05:01.026Z,17.30
2023-02-11T11:07:30.330Z,16.97
2023-02-11T11:10:02.583Z,17.50
2023-02-11T11:12:32.699Z,16.60
2023-02-11T11:15:02.830Z,14.17
2023-02-11T11:17:30.930Z,14.70
2023-02-11T11:20:20.191Z,15.83
2023-02-11T11:22:48.932Z,16.20
2023-02-11T11:25:27.341Z,14.23
2023-02-11T11:27:56.780Z,15.53
2023-02-11T11:30:28.585Z,20.00
2023-02-11T11:32:56.657Z,14.50
2023-02-11T11:35:28.808Z,17.00
2023-02-11T11:37:59.953Z,17.00
2023-02-11T11:40:30.225Z,14.33
2023-02-11T11:43:05.473Z,13.90
2023-02-11T11:45:34.516Z,14.03
2023-02-11T11:48:05.488Z,15.23
2023-02-11T11:50:36.358Z,14.33
2023-02-11T11:53:06.345Z,11.90
2023-02-11T11:55:36.560Z,16.30
2023-02-11T11:58:05.303Z,13.70
2023-02-11T12:00:37.827Z,12.77
2023-02-11T12:03:26.262Z,15.37
2023-02-11T12:06:01.728Z,10.67
2023-02-11T12:08:36.664Z,12.43
2023-02-11T12:11:11.285Z,15.13
2023-02-11T12:13:43.843Z,15.07
2023-02-11T12:16:19.121Z,18.57
2023-02-11T12:19:01.679Z,12.40
2023-02-11T12:21:33.141Z,12.73
2023-02-11T12:24:09.120Z,14.00
2023-02-11T12:26:42.004Z,12.80
2023-02-11T12:29:15.229Z,12.60
2023-02-11T12:31:53.318Z,13.53
2023-02-11T12:34:29.733Z,12.63
2023-02-11T12:37:06.200Z,11.47
2023-02-11T12:39:41.339Z,11.23
2023-02-11T12:42:35.610Z,9.63
2023-02-11T12:45:10.474Z,6.90
2023-02-11T12:47:45.749Z,10.40
2023-02-11T12:50:19.340Z,9.97
2023-02-11T12:52:56.846Z,13.43
2023-02-11T12:55:26.612Z,10.47
2023-02-11T12:57:55.773Z,14.37
2023-02-11T13:00:25.989Z,12.23
2023-02-11T13:02:57.558Z,9.47
2023-02-11T13:05:27.026Z,13.37
2023-02-11T13:07:57.049Z,9.83
2023-02-11T13:10:29.813Z,10.03
2023-02-11T13:13:15.468Z,8.43
2023-02-11T13:15:44.020Z,10.93
2023-02-11T13:18:19.241Z,14.07
2023-02-11T13:20:50.830Z,11.67
2023-02-11T13:23:24.035Z,10.30
2023-02-11T13:25:55.193Z,12.47
2023-02-11T13:28:27.026Z,15.70
2023-02-11T13:31:02.599Z,10.47
2023-02-11T13:33:36.006Z,9.57
2023-02-11T13:36:14.589Z,10.57
2023-02-11T13:38:42.495Z,10.67
2023-02-11T13:41:17.852Z,11.43
2023-02-11T13:43:45.783Z,8.43
2023-02-11T13:46:14.451Z,9.73
2023-02-11T13:48:48.843Z,8.27
2023-02-11T13:51:17.402Z,12.70
2023-02-11T13:53:46.659Z,10.43
2023-02-11T13:56:24.730Z,10.13
2023-02-11T13:58:52.669Z,11.37
2023-02-11T14:01:35.246Z,9.50
2023-02-11T14:04:39.104Z,13.30
2023-02-11T14:07:43.004Z,8.80
2023-02-11T14:10:25.491Z,13.57
2023-02-11T14:13:06.723Z,9.23
2023-02-11T14:15:43.373Z,10.87
2023-02-11T14:18:29.604Z,10.83
2023-02-11T14:21:04.034Z,8.53
2023-02-11T14:23:31.858Z,10.70
2023-02-11T14:26:04.273Z,9.77
2023-02-11T14:28:34.584Z,7.63
2023-02-11T14:31:06.108Z,11.37
2023-02-11T14:33:45.864Z,6.57
2023-02-11T14:36:32.605Z,8.33
2023-02-11T14:39:03.633Z,11.83
2023-02-11T14:41:33.261Z,8.80
2023-02-11T14:44:02.616Z,8.90
2023-02-11T14:46:32.978Z,11.20
2023-02-11T14:49:01.659Z,4.67
2023-02-11T14:51:32.635Z,10.77
2023-02-11T14:54:02.510Z,11.07
2023-02-11T14:56:32.173Z,10.00
2023-02-11T14:58:59.814Z,11.33
2023-02-11T15:01:30.329Z,12.37
2023-02-11T15:03:59.132Z,12.13
2023-02-11T15:06:29.307Z,8.23
2023-02-11T15:09:01.976Z,11.83
2023-02-11T15:11:32.104Z,11.13
2023-02-11T15:14:01.649Z,12.17
2023-02-11T15:16:29.932Z,10.60
2023-02-11T15:18:58.878Z,7.30
2023-02-11T15:21:27.937Z,14.00
2023-02-11T15:24:03.581Z,11.40
2023-02-11T15:26:31.372Z,11.40
2023-02-11T15:28:59.356Z,13.33
2023-02-11T15:31:28.555Z,12.50
2023-02-11T15:33:56.445Z,13.93
2023-02-11T15:36:28.811Z,12.47
2023-02-11T15:39:15.244Z,17.90
2023-02-11T15:41:44.455Z,11.43
2023-02-11T15:44:26.992Z,15.17
2023-02-11T15:46:54.614Z,11.97
2023-02-11T15:49:23.392Z,14.77
2023-02-11T15:51:51.807Z,12.47
2023-02-11T15:54:20.757Z,17.07
2023-02-11T15:56:51.646Z,17.03
2023-02-11T15:59:20.501Z,14.90
2023-02-11T16:01:48.847Z,17.93
2023-02-11T16:04:20.713Z,15.03
2023-02-11T16:06:48.938Z,12.27
2023-02-11T16:09:24.385Z,14.53
2023-02-11T16:11:58.205Z,15.50
2023-02-11T16:14:30.591Z,15.87
2023-02-11T16:17:00.093Z,15.20
2023-02-11T16:19:28.728Z,16.77
2023-02-11T16:21:57.296Z,19.00
2023-02-11T16:24:28.104Z,14.97
2023-02-11T16:26:58.648Z,14.43
2023-02-11T16:29:27.413Z,17.23
2023-02-11T16:31:56.207Z,16.53
2023-02-11T16:34:24.943Z,13.77
2023-02-11T16:36:53.336Z,14.03
2023-02-11T16:39:22.584Z,15.17
2023-02-11T16:41:51.769Z,13.43
2023-02-11T16:44:20.792Z,15.00
2023-02-11T16:46:48.841Z,16.10
2023-02-11T16:49:18.711Z,18.90
2023-02-11T16:51:48.041Z,19.20
2023-02-11T16:54:16.269Z,16.40
2023-02-11T16:56:44.011Z,17.23
2023-02-11T16:59:11.678Z,14.30
2023-02-11T17:01:41.377Z,17.10
2023-02-11T17:04:11.984Z,15.80
2023-02-11T17:06:39.645Z,14.83
2023-02-11T17:09:08.602Z,18.27
2023-02-11T17:11:36.279Z,17.17
2023-02-11T17:14:03.909Z,23.00
2023-02-11T17:16:32.659Z,17.60
2023-02-11T17:19:02.366Z,19.03
2023-02-11T17:21:31.994Z,16.03
2023-02-11T17:24:00.046Z,15.00
2023-02-11T17:26:27.885Z,15.47
2023-02-11T17:28:55.613Z,16.67
2023-02-11T17:31:23.357Z,24.57
2023-02-11T17:33:51.206Z,18.80
2023-02-11T17:36:20.194Z,23.10
2023-02-11T17:38:47.916Z,18.57
2023-02-11T17:41:15.698Z,18.00
2023-02-11T17:43:43.393Z,20.77
2023-02-11T17:46:11.130Z,17.17
2023-02-11T17:48:39.266Z,20.30
2023-02-11T17:51:08.846Z,17.03
2023-02-11T17:53:37.837Z,21.60
2023-02-11T17:56:07.391Z,20.83
2023-02-11T17:58:35.079Z,18.10
2023-02-11T18:01:02.807Z,22.63
2023-02-11T18:03:30.511Z,21.87
2023-02-11T18:06:00.495Z,18.67
2023-02-11T18:08:28.140Z,20.93
2023-02-11T18:10:57.215Z,20.67
2023-02-11T18:13:24.973Z,21.60
2023-02-11T18:15:52.856Z,18.43
2023-02-11T18:18:20.779Z,22.40
2023-02-11T18:20:56.626Z,13.20
2023-02-11T18:23:24.316Z,20.73
2023-02-11T18:25:52.271Z,22.10
2023-02-11T18:28:21.660Z,18.43
2023-02-11T18:30:49.376Z,20.13
2023-02-11T18:33:17.090Z,13.80
2023-02-11T18:35:46.003Z,16.67
2023-02-11T18:38:13.680Z,17.30
2023-02-11T18:40:42.182Z,14.23
2023-02-11T18:43:09.870Z,15.20
2023-02-11T18:45:38.905Z,17.77
2023-02-11T18:48:07.246Z,7.97
2023-02-11T18:50:35.056Z,14.07
2023-02-11T18:53:02.827Z,15.57
2023-02-11T18:55:30.444Z,13.43
2023-02-11T18:57:58.169Z,12.43
2023-02-11T19:00:26.022Z,15.43
2023-02-11T19:02:55.092Z,14.53
2023-02-11T19:05:22.851Z,14.73
2023-02-11T19:07:50.491Z,15.87
2023-02-11T19:10:18.248Z,15.63
2023-02-11T19:12:45.917Z,15.47
2023-02-11T19:15:14.261Z,12.53
2023-02-11T19:17:41.875Z,22.70
2023-02-11T19:20:11.622Z,16.63
2023-02-11T19:22:39.243Z,16.43
2023-02-11T19:25:07.685Z,13.73
2023-02-11T19:27:35.729Z,15.27
2023-02-11T19:30:03.414Z,17.70
2023-02-11T19:32:31.381Z,14.53
2023-02-11T19:34:59.100Z,15.77
2023-02-11T19:37:28.192Z,17.40
2023-02-11T19:39:56.004Z,16.23
2023-02-11T19:42:26.521Z,14.67
2023-02-11T19:44:55.065Z,13.57
2023-02-11T19:47:27.821Z,16.13
2023-02-11T19:49:56.147Z,18.03
2023-02-11T19:52:23.837Z,16.20
2023-02-11T19:54:53.113Z,14.73
2023-02-11T19:57:20.832Z,13.17
2023-02-11T19:59:48.485Z,9.57
2023-02-11T20:02:16.256Z,12.80
2023-02-11T20:04:43.947Z,12.63
2023-02-11T20:07:11.612Z,16.17
2023-02-11T20:09:41.067Z,12.50
2023-02-11T20:12:10.122Z,14.13
2023-02-11T20:14:37.942Z,14.87
2023-02-11T20:17:05.609Z,16.23
2023-02-11T20:19:33.437Z,13.63
2023-02-11T20:22:01.109Z,14.87
2023-02-11T20:24:28.781Z,10.70
2023-02-11T20:26:56.576Z,10.60
2023-02-11T20:29:26.322Z,10.73
2023-02-11T20:31:54.316Z,11.30
2023-02-11T20:34:22.313Z,8.47
2023-02-11T20:36:52.866Z,10.77
2023-02-11T20:39:22.399Z,8.17
2023-02-11T20:41:50.674Z,7.23
2023-02-11T20:44:18.895Z,10.03
2023-02-11T20:46:48.060Z,8.63
2023-02-11T20:49:16.910Z,7.57
2023-02-11T20:51:45.251Z,10.53
2023-02-11T20:54:13.899Z,9.83
2023-02-11T20:56:41.662Z,9.37
2023-02-11T20:59:12.710Z,9.13
2023-02-11T21:01:42.351Z,7.73
2023-02-11T21:04:13.908Z,6.80
2023-02-11T21:06:42.988Z,8.70
2023-02-11T21:09:12.085Z,11.10
2023-02-11T21:11:39.874Z,13.10
2023-02-11T21:14:07.763Z,22.10
2023-02-11T21:16:35.446Z,24.20
2023-02-11T21:19:03.696Z,22.17
2023-02-11T21:21:32.728Z,18.30
2023-02-11T21:24:00.652Z,17.30
2023-02-11T21:26:28.524Z,17.60
2023-02-11T21:28:56.175Z,16.63
2023-02-11T21:31:25.146Z,18.63
2023-02-11T21:33:54.578Z,18.23
2023-02-11T21:36:22.424Z,20.90
2023-02-11T21:38:51.477Z,27.70
2023-02-11T21:41:20.067Z,24.90
2023-02-11T21:43:47.713Z,30.10
2023-02-11T21:46:16.338Z,32.77
2023-02-11T21:48:44.318Z,28.30
2023-02-11T21:51:13.943Z,29.27
2023-02-11T21:53:41.582Z,22.80
2023-02-11T21:56:16.164Z,30.07
2023-02-11T21:58:44.308Z,27.27
2023-02-11T22:01:13.135Z,30.80
2023-02-11T22:03:40.972Z,24.73
2023-02-11T22:06:09.426Z,19.53
2023-02-11T22:08:37.269Z,19.70
2023-02-11T22:11:05.718Z,26.50
2023-02-11T22:13:34.816Z,28.80
2023-02-11T22:16:03.921Z,29.63
2023-02-11T22:18:31.650Z,27.50
2023-02-11T22:21:00.008Z,38.57
2023-02-11T22:23:27.898Z,28.90
2023-02-11T22:25:55.960Z,19.77
2023-02-11T22:28:25.422Z,20.57
2023-02-11T22:30:55.733Z,19.63
2023-02-11T22:33:23.888Z,22.13
2023-02-11T22:35:58.376Z,14.43
2023-02-11T22:38:26.176Z,21.63
2023-02-11T22:40:53.954Z,18.37
2023-02-11T22:43:21.670Z,18.70
2023-02-11T22:45:49.485Z,16.03
2023-02-11T22:48:20.787Z,19.63
2023-02-11T22:50:50.550Z,14.10
2023-02-11T22:53:18.777Z,17.37
2023-02-11T22:55:46.451Z,17.50
2023-02-11T22:58:14.159Z,19.67
2023-02-11T23:00:42.593Z,16.33
2023-02-11T23:03:11.354Z,15.97
2023-02-11T23:05:40.804Z,18.67
2023-02-11T23:08:09.015Z,14.03
2023-02-11T23:10:37.195Z,14.83
2023-02-11T23:13:05.056Z,11.40
2023-02-11T23:15:32.870Z,12.33
2023-02-11T23:18:00.780Z,10.57
2023-02-11T23:20:28.489Z,10.67
2023-02-11T23:22:57.585Z,12.33
2023-02-11T23:25:25.208Z,10.93
2023-02-11T23:27:52.987Z,8.10
2023-02-11T23:30:21.904Z,10.87
2023-02-11T23:32:49.655Z,9.77
2023-02-11T23:35:22.248Z,11.00
2023-02-11T23:37:50.418Z,9.77
2023-02-11T23:40:19.761Z,13.27
2023-02-11T23:42:49.260Z,10.10
2023-02-11T23:45:17.175Z,10.80
2023-02-11T23:47:45.148Z,11.30
2023-02-11T23:50:13.152Z,12.70
2023-02-11T23:52:40.862Z,12.90
2023-02-11T23:55:08.749Z,11.40
2023-02-11T23:57:37.974Z,11.57
